createdAt,value
2018-01-02T00:01:00.049Z,55.00
2018-01-02T00:03:28.038Z,55.00
2018-01-02T00:05:56.038Z,55.00
2018-01-02T00:08:24.032Z,55.00
2018-01-02T00:10:51.999Z,55.00
2018-01-02T00:13:20.005Z,55.00
2018-01-02T00:15:47.975Z,55.50
2018-01-02T00:18:17.719Z,55.00
2018-01-02T00:20:45.695Z,54.90
2018-01-02T00:23:13.671Z,54.90
2018-01-02T00:25:41.681Z,55.00
2018-01-02T00:28:09.661Z,55.00
2018-01-02T00:30:37.966Z,55.00
2018-01-02T00:33:05.935Z,55.00
2018-01-02T00:35:33.891Z,55.00
2018-01-02T00:38:01.858Z,55.00
2018-01-02T00:40:29.841Z,54.90
2018-01-02T00:42:57.817Z,55.00
2018-01-02T00:45:25.775Z,55.00
2018-01-02T00:47:53.757Z,55.00
2018-01-02T00:50:21.781Z,55.00
2018-01-02T00:52:49.778Z,54.90
2018-01-02T00:55:17.773Z,54.90
2018-01-02T00:57:45.704Z,54.90
2018-01-02T01:00:13.674Z,54.90
2018-01-02T01:02:41.646Z,54.90
2018-01-02T01:05:09.645Z,54.90
2018-01-02T01:07:37.651Z,54.90
2018-01-02T01:10:06.397Z,55.00
2018-01-02T01:12:34.393Z,55.00
2018-01-02T01:15:02.374Z,55.00
2018-01-02T01:17:31.107Z,55.00
2018-01-02T01:19:59.116Z,55.00
2018-01-02T01:22:27.118Z,55.00
2018-01-02T01:24:55.091Z,55.00
2018-01-02T01:27:23.053Z,55.00
2018-01-02T01:29:51.058Z,55.00
2018-01-02T01:32:19.077Z,55.00
2018-01-02T01:34:47.854Z,55.10
2018-01-02T01:37:15.873Z,55.10
2018-01-02T01:39:43.838Z,55.10
2018-01-02T01:42:11.818Z,55.10
2018-01-02T01:44:39.804Z,55.10
2018-01-02T01:47:07.810Z,55.20
2018-01-02T01:49:36.578Z,55.20
2018-01-02T01:52:04.583Z,55.20
2018-01-02T01:54:32.546Z,55.20
2018-01-02T01:57:01.294Z,55.20
2018-01-02T01:59:29.297Z,55.20
2018-01-02T02:01:58.024Z,55.20
2018-01-02T02:04:25.998Z,55.20
2018-01-02T02:06:53.995Z,55.20
2018-01-02T02:09:21.989Z,55.20
2018-01-02T02:11:50.784Z,55.30
2018-01-02T02:14:19.541Z,55.30
2018-01-02T02:16:47.559Z,55.80
2018-01-02T02:19:15.527Z,55.30
2018-01-02T02:21:43.501Z,55.30
2018-01-02T02:24:11.477Z,55.30
2018-01-02T02:26:39.459Z,55.30
2018-01-02T02:29:07.436Z,55.30
2018-01-02T02:31:35.398Z,55.40
2018-01-02T02:34:03.406Z,55.40
2018-01-02T02:36:32.141Z,55.50
2018-01-02T02:39:00.122Z,55.40
2018-01-02T02:41:28.103Z,55.40
2018-01-02T02:43:56.120Z,55.40
2018-01-02T02:46:24.088Z,55.50
2018-01-02T02:48:52.054Z,55.50
2018-01-02T02:51:20.022Z,55.50
2018-01-02T02:53:48.782Z,55.60
2018-01-02T02:56:16.752Z,55.50
2018-01-02T02:58:44.740Z,55.50
2018-01-02T03:01:13.510Z,55.60
2018-01-02T03:03:41.486Z,55.60
2018-01-02T03:06:09.465Z,56.30
2018-01-02T03:08:38.225Z,55.60
2018-01-02T03:11:06.198Z,55.60
2018-01-02T03:13:34.174Z,55.60
2018-01-02T03:16:02.146Z,55.60
2018-01-02T03:18:30.121Z,55.60
2018-01-02T03:20:58.858Z,55.70
2018-01-02T03:23:26.822Z,55.70
2018-01-02T03:25:54.836Z,55.70
2018-01-02T03:28:22.810Z,55.70
2018-01-02T03:30:50.794Z,55.70
2018-01-02T03:33:19.548Z,55.70
2018-01-02T03:35:47.546Z,55.70
2018-01-02T03:38:16.326Z,55.80
2018-01-02T03:40:45.071Z,55.80
2018-01-02T03:43:13.093Z,55.80
2018-01-02T03:45:41.866Z,55.80
2018-01-02T03:48:09.865Z,55.80
2018-01-02T03:50:37.880Z,55.90
2018-01-02T03:53:05.886Z,55.90
2018-01-02T03:55:33.920Z,55.90
2018-01-02T03:58:01.881Z,55.90
2018-01-02T04:00:29.846Z,55.90
2018-01-02T04:02:57.837Z,56.00
2018-01-02T04:05:25.802Z,56.00
2018-01-02T04:07:53.782Z,56.00
2018-01-02T04:10:21.754Z,56.00
2018-01-02T04:12:49.746Z,56.00
2018-01-02T04:15:18.558Z,56.20
2018-01-02T04:17:46.548Z,56.20
2018-01-02T04:20:14.524Z,56.20
2018-01-02T04:22:42.495Z,56.20
2018-01-02T04:25:10.526Z,56.20
2018-01-02T04:27:38.518Z,56.20
2018-01-02T04:30:06.485Z,56.20
2018-01-02T04:32:34.453Z,56.20
2018-01-02T04:35:02.427Z,56.20
2018-01-02T04:37:30.435Z,56.20
2018-01-02T04:39:58.414Z,56.30
2018-01-02T04:42:27.148Z,56.30
2018-01-02T04:44:55.135Z,56.40
2018-01-02T04:47:23.119Z,56.30
2018-01-02T04:49:51.119Z,56.30
2018-01-02T04:52:19.893Z,56.40
2018-01-02T04:54:48.645Z,56.50
2018-01-02T04:57:16.601Z,56.40
2018-01-02T04:59:44.589Z,56.40
2018-01-02T05:02:12.567Z,56.50
2018-01-02T05:04:40.563Z,56.50
2018-01-02T05:07:09.334Z,56.50
2018-01-02T05:09:37.311Z,56.60
2018-01-02T05:12:06.059Z,56.60
2018-01-02T05:14:34.879Z,56.70
2018-01-02T05:17:02.873Z,56.60
2018-01-02T05:19:31.654Z,56.70
2018-01-02T05:22:00.406Z,56.80
2018-01-02T05:24:28.437Z,56.70
2018-01-02T05:26:56.402Z,56.80
2018-01-02T05:29:24.409Z,56.80
2018-01-02T05:31:52.342Z,56.80
2018-01-02T05:34:20.306Z,56.80
2018-01-02T05:36:48.303Z,56.90
2018-01-02T05:39:16.523Z,56.90
2018-01-02T05:41:45.300Z,56.90
2018-01-02T05:44:13.318Z,56.90
2018-01-02T05:46:41.316Z,57.50
2018-01-02T05:49:09.308Z,56.90
2018-01-02T05:51:37.274Z,56.90
2018-01-02T05:54:05.248Z,57.00
2018-01-02T05:56:33.258Z,57.00
2018-01-02T05:59:01.239Z,57.10
2018-01-02T06:01:29.211Z,57.10
2018-01-02T06:03:57.204Z,57.10
2018-01-02T06:06:25.213Z,57.10
2018-01-02T06:08:53.958Z,57.20
2018-01-02T06:11:22.691Z,57.30
2018-01-02T06:13:50.678Z,57.20
2018-01-02T06:16:18.670Z,57.30
2018-01-02T06:18:46.630Z,57.30
2018-01-02T06:21:14.602Z,57.40
2018-01-02T06:23:42.566Z,57.30
2018-01-02T06:26:10.573Z,57.40
2018-01-02T06:28:38.556Z,57.40
2018-01-02T06:31:07.328Z,57.50
2018-01-02T06:33:35.987Z,57.50
2018-01-02T06:36:04.842Z,57.50
2018-01-02T06:38:32.819Z,57.60
2018-01-02T06:41:00.806Z,57.50
2018-01-02T06:43:28.790Z,57.50
2018-01-02T06:45:56.830Z,57.60
2018-01-02T06:48:24.823Z,57.60
2018-01-02T06:50:52.834Z,57.60
2018-01-02T06:53:21.604Z,57.70
2018-01-02T06:55:49.583Z,57.70
2018-01-02T06:58:17.564Z,57.80
2018-01-02T07:00:46.339Z,57.80
2018-01-02T07:03:14.223Z,57.70
2018-01-02T07:05:42.973Z,57.80
2018-01-02T07:08:10.938Z,57.80
2018-01-02T07:10:49.991Z,57.80
2018-01-02T07:13:29.586Z,57.80
2018-01-02T07:16:07.131Z,57.60
2018-01-02T07:18:35.883Z,57.80
2018-01-02T07:21:03.907Z,57.80
2018-01-02T07:23:31.898Z,58.00
2018-01-02T07:25:59.905Z,58.10
2018-01-02T07:28:27.878Z,58.30
2018-01-02T07:30:55.854Z,58.50
2018-01-02T07:33:23.855Z,58.60
2018-01-02T07:35:51.859Z,58.80
2018-01-02T07:38:19.853Z,58.90
2018-01-02T07:40:47.807Z,59.00
2018-01-02T07:43:15.784Z,59.10
2018-01-02T07:45:43.810Z,59.20
2018-01-02T07:48:11.782Z,59.20
2018-01-02T07:50:39.793Z,59.40
2018-01-02T07:53:07.793Z,59.40
2018-01-02T07:55:36.557Z,59.50
2018-01-02T07:58:04.556Z,59.60
2018-01-02T08:00:33.351Z,59.70
2018-01-02T08:03:01.340Z,59.70
2018-01-02T08:05:29.346Z,59.80
2018-01-02T08:07:57.323Z,60.00
2018-01-02T08:10:25.300Z,60.20
2018-01-02T08:12:53.287Z,60.40
2018-01-02T08:15:22.027Z,60.30
2018-01-02T08:17:50.003Z,60.30
2018-01-02T08:20:18.009Z,60.30
2018-01-02T08:22:46.758Z,60.30
2018-01-02T08:25:14.718Z,60.30
2018-01-02T08:27:42.722Z,60.40
2018-01-02T08:30:10.715Z,60.40
2018-01-02T08:32:38.701Z,60.40
2018-01-02T08:35:06.691Z,60.30
2018-01-02T08:37:34.698Z,60.30
2018-01-02T08:40:02.685Z,60.30
2018-01-02T08:42:31.485Z,60.40
2018-01-02T08:44:59.467Z,60.40
2018-01-02T08:47:27.463Z,60.20
2018-01-02T08:49:55.459Z,59.80
2018-01-02T08:52:23.523Z,59.70
2018-01-02T08:54:51.518Z,59.70
2018-01-02T08:57:20.264Z,59.80
2018-01-02T08:59:48.233Z,59.80
2018-01-02T09:02:16.211Z,59.70
2018-01-02T09:04:44.264Z,59.70
2018-01-02T09:07:12.238Z,59.60
2018-01-02T09:09:40.231Z,59.60
2018-01-02T09:12:23.085Z,59.70
2018-01-02T09:14:51.113Z,59.60
2018-01-02T09:17:19.514Z,59.50
2018-01-02T09:19:48.349Z,59.50
2018-01-02T09:22:16.331Z,59.50
2018-01-02T09:24:45.110Z,59.60
2018-01-02T09:27:13.117Z,59.70
2018-01-02T09:29:41.105Z,59.60
2018-01-02T09:32:09.857Z,59.50
2018-01-02T09:34:37.856Z,59.50
2018-01-02T09:37:06.645Z,59.50
2018-01-02T09:39:35.414Z,59.60
2018-01-02T09:42:10.039Z,59.60
2018-01-02T09:44:38.072Z,59.60
2018-01-02T09:47:06.057Z,59.40
2018-01-02T09:49:34.053Z,59.30
2018-01-02T09:52:02.058Z,59.20
2018-01-02T09:54:30.059Z,59.10
2018-01-02T09:56:58.412Z,59.00
2018-01-02T09:59:26.391Z,59.00
2018-01-02T10:01:54.353Z,58.90
2018-01-02T10:04:24.504Z,58.70
2018-01-02T10:06:52.494Z,58.50
2018-01-02T10:09:20.481Z,58.50
2018-01-02T10:11:49.238Z,58.30
2018-01-02T10:14:17.212Z,58.30
2018-01-02T10:16:45.205Z,58.40
2018-01-02T10:19:13.940Z,58.70
2018-01-02T10:21:41.943Z,58.70
2018-01-02T10:24:09.994Z,58.50
2018-01-02T10:26:37.970Z,58.30
2018-01-02T10:29:05.949Z,58.10
2018-01-02T10:31:33.955Z,58.00
2018-01-02T10:34:01.951Z,58.10
2018-01-02T10:36:29.933Z,58.30
2018-01-02T10:38:57.948Z,58.20
2018-01-02T10:41:26.748Z,58.60
2018-01-02T10:43:54.753Z,58.60
2018-01-02T10:46:22.757Z,58.80
2018-01-02T10:48:50.751Z,58.60
2018-01-02T10:51:18.718Z,58.10
2018-01-02T10:53:46.710Z,56.70
2018-01-02T10:56:15.170Z,56.30
2018-01-02T10:58:43.175Z,56.40
2018-01-02T11:01:11.251Z,56.50
2018-01-02T11:03:40.086Z,54.50
2018-01-02T11:06:08.878Z,54.60
2018-01-02T11:08:37.619Z,54.60
2018-01-02T11:11:11.323Z,54.60
2018-01-02T11:13:45.006Z,54.10
2018-01-02T11:16:12.983Z,53.50
2018-01-02T11:18:41.105Z,53.30
2018-01-02T11:21:09.943Z,53.10
2018-01-02T11:23:37.972Z,53.10
2018-01-02T11:26:06.731Z,53.30
2018-01-02T11:28:34.741Z,53.30
2018-01-02T11:31:02.778Z,53.40
2018-01-02T11:33:30.790Z,53.50
2018-01-02T11:35:58.814Z,53.50
2018-01-02T11:38:26.817Z,53.10
2018-01-02T11:40:55.571Z,53.20
2018-01-02T11:43:23.560Z,53.20
2018-01-02T11:45:52.342Z,53.20
2018-01-02T11:48:21.138Z,53.50
2018-01-02T11:50:49.911Z,52.90
2018-01-02T11:53:17.919Z,52.80
2018-01-02T11:55:45.902Z,52.00
2018-01-02T11:58:16.758Z,51.60
2018-01-02T12:00:44.801Z,51.20
2018-01-02T12:03:12.809Z,50.70
2018-01-02T12:05:40.791Z,50.30
2018-01-02T12:08:08.774Z,50.20
2018-01-02T12:10:36.732Z,50.60
2018-01-02T12:13:04.730Z,50.30
2018-01-02T12:15:33.472Z,49.50
2018-01-02T12:18:01.470Z,49.50
2018-01-02T12:20:30.219Z,47.20
2018-01-02T12:22:58.241Z,47.10
2018-01-02T12:25:27.021Z,45.20
2018-01-02T12:27:55.754Z,44.20
2018-01-02T12:30:23.755Z,44.10
2018-01-02T12:32:51.736Z,43.20
2018-01-02T12:35:19.726Z,42.50
2018-01-02T12:37:47.674Z,42.00
2018-01-02T12:40:15.654Z,40.90
2018-01-02T12:42:44.489Z,39.00
2018-01-02T12:45:12.471Z,38.90
2018-01-02T12:47:40.501Z,38.30
2018-01-02T12:50:08.502Z,37.80
2018-01-02T12:52:36.509Z,37.30
2018-01-02T12:55:04.521Z,37.00
2018-01-02T12:57:32.530Z,37.30
2018-01-02T13:00:00.534Z,36.20
2018-01-02T13:02:35.648Z,35.00
2018-01-02T13:05:03.706Z,34.90
2018-01-02T13:07:31.690Z,35.20
2018-01-02T13:09:59.682Z,35.80
2018-01-02T13:12:28.450Z,36.30
2018-01-02T13:14:56.458Z,36.20
2018-01-02T13:17:24.501Z,36.90
2018-01-02T13:19:53.265Z,37.30
2018-01-02T13:22:21.286Z,37.20
2018-01-02T13:24:49.271Z,36.60
2018-01-02T13:27:17.295Z,36.10
2018-01-02T13:29:46.060Z,35.30
2018-01-02T13:32:14.087Z,35.20
2018-01-02T13:34:42.118Z,34.90
2018-01-02T13:37:10.126Z,34.60
2018-01-02T13:39:38.138Z,35.20
2018-01-02T13:42:06.120Z,34.50
2018-01-02T13:44:34.094Z,34.30
2018-01-02T13:47:02.096Z,34.20
2018-01-02T13:49:30.117Z,34.00
2018-01-02T13:51:58.115Z,34.00
2018-01-02T13:54:26.886Z,34.60
2018-01-02T13:56:54.893Z,34.60
2018-01-02T13:59:22.899Z,35.00
2018-01-02T14:01:51.697Z,35.40
2018-01-02T14:04:19.705Z,35.40
2018-01-02T14:06:48.517Z,35.10
2018-01-02T14:09:16.479Z,35.10
2018-01-02T14:11:44.506Z,35.10
2018-01-02T14:14:12.499Z,35.30
2018-01-02T14:16:41.325Z,35.20
2018-01-02T14:19:09.355Z,35.10
2018-01-02T14:21:38.134Z,35.30
2018-01-02T14:24:06.905Z,35.50
2018-01-02T14:26:34.918Z,35.40
2018-01-02T14:29:02.926Z,35.50
2018-01-02T14:31:30.933Z,35.70
2018-01-02T14:33:59.675Z,36.20
2018-01-02T14:36:27.737Z,36.10
2018-01-02T14:38:55.743Z,36.00
2018-01-02T14:41:23.774Z,35.80
2018-01-02T14:43:51.751Z,35.70
2018-01-02T14:46:19.762Z,35.80
2018-01-02T14:48:47.754Z,35.90
2018-01-02T14:51:15.765Z,36.00
2018-01-02T14:53:43.754Z,36.10
2018-01-02T14:56:12.142Z,36.10
2018-01-02T14:58:40.119Z,36.10
2018-01-02T15:01:08.083Z,36.10
2018-01-02T15:03:36.119Z,36.00
2018-01-02T15:06:04.111Z,36.50
2018-01-02T15:08:32.121Z,36.00
2018-01-02T15:11:00.898Z,36.20
2018-01-02T15:13:29.630Z,36.30
2018-01-02T15:15:57.651Z,36.30
2018-01-02T15:18:26.411Z,36.30
2018-01-02T15:20:54.393Z,36.30
2018-01-02T15:23:22.390Z,36.40
2018-01-02T15:25:50.389Z,36.40
2018-01-02T15:28:18.418Z,36.50
2018-01-02T15:30:47.155Z,36.70
2018-01-02T15:33:15.173Z,36.70
2018-01-02T15:35:43.949Z,36.70
2018-01-02T15:38:11.952Z,36.70
2018-01-02T15:40:39.889Z,36.70
2018-01-02T15:43:08.033Z,36.80
2018-01-02T15:45:37.902Z,36.80
2018-01-02T15:48:06.206Z,36.80
2018-01-02T15:50:34.388Z,36.80
2018-01-02T15:53:02.420Z,36.90
2018-01-02T15:55:30.442Z,36.90
2018-01-02T15:57:58.412Z,36.90
2018-01-02T16:00:26.400Z,36.90
2018-01-02T16:02:54.414Z,36.90
2018-01-02T16:05:22.409Z,37.10
2018-01-02T16:07:50.397Z,36.90
2018-01-02T16:10:18.408Z,37.00
2018-01-02T16:12:46.416Z,36.90
2018-01-02T16:15:14.441Z,37.00
2018-01-02T16:17:43.182Z,36.90
2018-01-02T16:20:11.217Z,36.80
2018-01-02T16:22:39.199Z,36.80
2018-01-02T16:25:07.191Z,36.80
2018-01-02T16:27:35.951Z,36.70
2018-01-02T16:30:03.986Z,36.80
2018-01-02T16:32:32.755Z,37.20
2018-01-02T16:35:00.798Z,36.60
2018-01-02T16:37:28.870Z,36.60
2018-01-02T16:39:57.698Z,36.40
2018-01-02T16:42:26.459Z,36.40
2018-01-02T16:44:54.446Z,36.40
2018-01-02T16:47:22.455Z,36.40
2018-01-02T16:49:50.483Z,36.80
2018-01-02T16:52:19.303Z,36.30
2018-01-02T16:54:47.374Z,36.10
2018-01-02T16:57:15.382Z,36.00
2018-01-02T16:59:43.373Z,36.00
2018-01-02T17:02:11.349Z,35.90
2018-01-02T17:04:39.394Z,35.90
2018-01-02T17:07:08.159Z,35.80
2018-01-02T17:09:36.222Z,35.80
2018-01-02T17:12:04.196Z,35.80
2018-01-02T17:14:32.162Z,35.70
2018-01-02T17:17:00.206Z,35.60
2018-01-02T17:19:28.994Z,35.40
2018-01-02T17:21:57.770Z,35.40
2018-01-02T17:24:26.603Z,35.30
2018-01-02T17:26:54.618Z,35.30
2018-01-02T17:29:22.646Z,35.20
2018-01-02T17:31:50.671Z,35.20
2018-01-02T17:34:19.442Z,35.00
2018-01-02T17:36:47.442Z,35.00
2018-01-02T17:39:15.504Z,34.90
2018-01-02T17:41:44.262Z,34.80
2018-01-02T17:44:12.289Z,34.80
2018-01-02T17:46:40.310Z,34.80
2018-01-02T17:49:08.307Z,34.70
2018-01-02T17:51:37.181Z,34.60
2018-01-02T17:54:05.943Z,34.70
2018-01-02T17:56:33.989Z,34.60
2018-01-02T17:59:01.989Z,34.60
2018-01-02T18:01:30.186Z,34.50
2018-01-02T18:03:58.930Z,34.60
2018-01-02T18:06:27.743Z,34.60
2018-01-02T18:08:55.882Z,34.70
2018-01-02T18:11:23.885Z,34.70
2018-01-02T18:13:51.909Z,35.50
2018-01-02T18:16:19.897Z,35.50
2018-01-02T18:18:47.874Z,35.50
2018-01-02T18:21:15.873Z,36.10
2018-01-02T18:23:43.917Z,35.60
2018-01-02T18:26:11.910Z,35.60
2018-01-02T18:28:39.921Z,35.60
2018-01-02T18:31:07.918Z,35.60
2018-01-02T18:33:35.894Z,35.50
2018-01-02T18:36:03.926Z,35.50
2018-01-02T18:38:31.926Z,35.50
2018-01-02T18:41:00.019Z,35.40
2018-01-02T18:43:28.076Z,35.30
2018-01-02T18:45:56.107Z,35.20
2018-01-02T18:48:24.086Z,35.20
2018-01-02T18:50:52.081Z,35.20
2018-01-02T18:53:20.085Z,35.10
2018-01-02T18:55:48.077Z,34.90
2018-01-02T18:58:16.890Z,34.80
2018-01-02T19:00:44.949Z,34.80
2018-01-02T19:03:12.932Z,34.70
2018-01-02T19:05:40.963Z,34.70
2018-01-02T19:08:09.717Z,34.40
2018-01-02T19:10:37.709Z,34.40
2018-01-02T19:13:05.704Z,34.20
2018-01-02T19:15:33.710Z,34.10
2018-01-02T19:18:01.723Z,34.10
2018-01-02T19:20:29.738Z,34.00
2018-01-02T19:22:57.707Z,33.90
2018-01-02T19:25:25.699Z,33.90
2018-01-02T19:27:53.702Z,33.80
2018-01-02T19:30:22.446Z,33.90
2018-01-02T19:32:50.442Z,33.50
2018-01-02T19:35:18.438Z,33.40
2018-01-02T19:37:47.194Z,33.30
2018-01-02T19:40:15.200Z,33.30
2018-01-02T19:42:43.206Z,33.20
2018-01-02T19:45:11.182Z,33.20
2018-01-02T19:47:39.191Z,33.10
2018-01-02T19:50:07.246Z,32.90
2018-01-02T19:52:35.245Z,33.00
2018-01-02T19:55:03.991Z,32.90
2018-01-02T19:57:31.997Z,33.00
2018-01-02T20:00:00.772Z,33.00
2018-01-02T20:02:28.802Z,32.90
2018-01-02T20:04:56.864Z,33.10
2018-01-02T20:07:24.842Z,33.00
2018-01-02T20:09:52.827Z,33.00
2018-01-02T20:12:20.802Z,33.10
2018-01-02T20:14:49.175Z,33.10
2018-01-02T20:17:17.169Z,33.10
2018-01-02T20:19:45.155Z,33.10
2018-01-02T20:22:13.895Z,33.30
2018-01-02T20:24:41.862Z,33.30
2018-01-02T20:27:09.874Z,33.30
2018-01-02T20:29:38.620Z,33.40
2018-01-02T20:32:06.663Z,33.40
2018-01-02T20:34:34.651Z,33.40
2018-01-02T20:37:02.686Z,33.50
2018-01-02T20:39:31.482Z,33.50
2018-01-02T20:41:59.463Z,33.50
2018-01-02T20:44:27.438Z,33.50
2018-01-02T20:46:55.438Z,33.50
2018-01-02T20:49:23.433Z,33.60
2018-01-02T20:51:51.467Z,33.70
2018-01-02T20:54:19.487Z,33.80
2018-01-02T20:56:48.254Z,33.80
2018-01-02T20:59:16.313Z,33.80
2018-01-02T21:01:44.290Z,33.90
2018-01-02T21:04:12.343Z,34.00
2018-01-02T21:06:40.438Z,34.10
2018-01-02T21:09:08.411Z,34.20
2018-01-02T21:11:36.483Z,34.20
2018-01-02T21:14:04.551Z,34.50
2018-01-02T21:16:32.556Z,34.40
2018-01-02T21:19:00.554Z,34.40
2018-01-02T21:21:28.553Z,34.40
2018-01-02T21:23:56.531Z,34.50
2018-01-02T21:26:24.499Z,34.50
2018-01-02T21:28:52.474Z,34.30
2018-01-02T21:31:21.197Z,35.30
2018-01-02T21:33:49.155Z,34.70
2018-01-02T21:36:17.197Z,34.80
2018-01-02T21:38:45.186Z,35.00
2018-01-02T21:41:13.965Z,35.10
2018-01-02T21:43:42.706Z,35.20
2018-01-02T21:46:10.714Z,35.20
2018-01-02T21:48:38.694Z,35.40
2018-01-02T21:51:07.480Z,35.50
2018-01-02T21:53:36.210Z,35.50
2018-01-02T21:56:04.225Z,35.50
2018-01-02T21:58:32.234Z,35.60
2018-01-02T22:01:00.211Z,35.70
2018-01-02T22:03:28.193Z,35.80
2018-01-02T22:05:56.172Z,35.80
2018-01-02T22:08:24.147Z,35.90
2018-01-02T22:10:52.138Z,35.90
2018-01-02T22:13:20.109Z,36.10
2018-01-02T22:15:48.093Z,36.90
2018-01-02T22:18:16.828Z,36.30
2018-01-02T22:20:44.814Z,36.30
2018-01-02T22:23:12.812Z,36.40
2018-01-02T22:25:41.538Z,36.50
2018-01-02T22:28:09.494Z,37.00
2018-01-02T22:30:37.478Z,36.50
2018-01-02T22:33:05.482Z,36.50
2018-01-02T22:35:33.465Z,36.40
2018-01-02T22:38:01.447Z,36.40
2018-01-02T22:40:30.206Z,36.40
2018-01-02T22:42:58.201Z,36.40
2018-01-02T22:45:26.989Z,36.40
2018-01-02T22:47:55.747Z,36.40
2018-01-02T22:50:23.742Z,36.40
2018-01-02T22:52:52.502Z,36.40
2018-01-02T22:55:21.231Z,36.40
2018-01-02T22:57:49.212Z,36.40
2018-01-02T23:00:17.290Z,36.40
2018-01-02T23:02:45.277Z,36.40
2018-01-02T23:05:13.341Z,36.50
2018-01-02T23:07:41.325Z,36.50
2018-01-02T23:10:09.305Z,36.50
2018-01-02T23:12:37.265Z,36.50
2018-01-02T23:15:05.287Z,36.60
2018-01-02T23:17:34.027Z,36.50
2018-01-02T23:20:01.990Z,36.50
2018-01-02T23:22:29.953Z,36.50
2018-01-02T23:24:57.929Z,36.50
2018-01-02T23:27:25.913Z,36.50
2018-01-02T23:29:53.894Z,36.50
2018-01-02T23:32:21.878Z,36.50
2018-01-02T23:34:50.610Z,36.40
2018-01-02T23:37:18.583Z,36.30
2018-01-02T23:39:46.600Z,36.40
2018-01-02T23:42:15.337Z,36.40
2018-01-02T23:44:43.290Z,36.40
2018-01-02T23:47:11.251Z,36.30
2018-01-02T23:49:39.218Z,36.30
2018-01-02T23:52:07.216Z,36.40
2018-01-02T23:54:35.186Z,36.40
2018-01-02T23:57:03.177Z,36.30
2018-01-02T23:59:31.147Z,36.30
